Time;durP1;ratioP1;P1;durP2;ratioP2;P2;SDS_P1;SDS_P2;PMS_P1;PMS_P2;Temp;Humidity;BMP_temperature;BMP_pressure;BME280_temperature;BME280_humidity;BME280_pressure;Samples;Min_cycle;Max_cycle;Signal;HPM_P1;HPM_P2
2023/08/02 00:02:20;;;;;;;0.00;0.00;;;14.50;99.90;;;;;;5029468;28;20052;-90
2023/08/02 00:04:46;;;;;;;0.30;0.17;;;14.50;99.90;;;;;;5045538;28;20048;-91
2023/08/02 00:07:12;;;;;;;0.00;0.00;;;14.50;99.90;;;;;;5029829;28;20594;-90
2023/08/02 00:09:37;;;;;;;0.00;0.00;;;14.40;99.90;;;;;;5048082;28;20110;-90
2023/08/02 00:12:03;;;;;;;0.00;0.00;;;14.40;99.90;;;;;;5051550;28;20041;-91
2023/08/02 00:14:29;;;;;;;0.00;0.00;;;14.40;99.90;;;;;;5049682;28;20048;-91
2023/08/02 00:16:55;;;;;;;0.17;0.10;;;14.50;99.90;;;;;;5049780;28;20041;-91
2023/08/02 00:19:20;;;;;;;1.00;0.80;;;14.60;99.90;;;;;;5049674;28;20044;-90
2023/08/02 00:21:46;;;;;;;0.22;0.22;;;15.10;99.90;;;;;;5049580;28;20053;-90
2023/08/02 00:24:12;;;;;;;0.00;0.00;;;14.50;99.90;;;;;;5049856;28;20041;-90
2023/08/02 00:26:38;;;;;;;0.00;0.00;;;14.50;99.90;;;;;;5049782;28;20163;-90
2023/08/02 00:29:04;;;;;;;0.00;0.00;;;14.10;99.90;;;;;;5033327;28;20487;-90
2023/08/02 00:31:29;;;;;;;0.00;0.00;;;14.50;99.90;;;;;;5051135;28;20106;-90
2023/08/02 00:33:55;;;;;;;0.52;0.38;;;14.50;99.90;;;;;;5048707;28;20092;-90
2023/08/02 00:36:20;;;;;;;0.20;0.20;;;14.60;99.90;;;;;;5051177;28;20063;-90
2023/08/02 00:38:46;;;;;;;0.00;0.00;;;14.40;99.90;;;;;;5050719;28;20080;-90
2023/08/02 00:41:12;;;;;;;0.00;0.00;;;14.50;99.90;;;;;;5049412;28;20049;-90
2023/08/02 00:43:39;;;;;;;0.00;0.00;;;14.50;99.90;;;;;;5049561;28;20048;-90
2023/08/02 00:46:07;;;;;;;0.32;0.32;;;15.70;99.90;;;;;;5049139;28;20041;-90
2023/08/02 00:48:34;;;;;;;0.00;0.00;;;15.30;99.90;;;;;;5033125;28;20450;-90
2023/08/02 00:51:00;;;;;;;0.10;0.08;;;14.80;99.90;;;;;;5050792;28;20052;-90
2023/08/02 00:53:26;;;;;;;1.17;0.30;;;14.50;99.90;;;;;;5049232;28;20553;-90
2023/08/02 00:55:52;;;;;;;0.00;0.00;;;15.20;99.90;;;;;;5050809;28;20120;-90
2023/08/02 00:58:18;;;;;;;0.00;0.00;;;15.30;99.90;;;;;;5050690;28;20104;-90
2023/08/02 01:00:44;;;;;;;3.00;0.63;;;15.90;99.90;;;;;;5032188;28;20168;-90
2023/08/02 01:03:09;;;;;;;0.20;0.13;;;14.50;99.90;;;;;;5032547;28;20045;-90
2023/08/02 01:05:42;;;;;;;0.10;0.10;;;14.50;99.90;;;;;;5049126;28;20460;-88
2023/08/02 01:08:13;;;;;;;0.00;0.00;;;15.10;99.90;;;;;;5050458;28;20060;-88
2023/08/02 01:10:45;;;;;;;0.00;0.00;;;15.00;99.90;;;;;;5050393;28;20049;-88
2023/08/02 01:13:14;;;;;;;0.00;0.00;;;14.50;99.90;;;;;;5049289;28;20786;-88
2023/08/02 01:15:40;;;;;;;0.00;0.00;;;14.80;99.90;;;;;;5050587;28;20080;-88
2023/08/02 01:18:06;;;;;;;0.73;0.20;;;14.50;99.90;;;;;;5050234;28;20875;-88
2023/08/02 01:20:31;;;;;;;0.90;0.15;;;14.50;99.90;;;;;;5049105;28;20399;-88
2023/08/02 01:22:57;;;;;;;0.00;0.00;;;14.40;99.90;;;;;;5050288;28;20057;-88
2023/08/02 01:25:25;;;;;;;0.22;0.22;;;14.40;99.90;;;;;;5048684;28;20217;-88
2023/08/02 01:27:56;;;;;;;0.13;0.10;;;14.40;99.90;;;;;;5048761;28;20045;-89
2023/08/02 01:30:23;;;;;;;0.28;0.28;;;15.60;99.90;;;;;;5032304;28;20060;-89
2023/08/02 01:32:50;;;;;;;0.38;0.15;;;14.40;99.90;;;;;;5048557;28;20049;-89
2023/08/02 01:35:17;;;;;;;9.77;1.88;;;14.40;99.90;;;;;;5048758;28;20118;-89
2023/08/02 01:37:43;;;;;;;0.20;0.20;;;14.40;99.90;;;;;;5050065;28;20044;-89
2023/08/02 01:40:10;;;;;;;6.68;0.98;;;14.40;99.90;;;;;;5048195;28;20094;-89
2023/08/02 01:42:36;;;;;;;0.00;0.00;;;14.40;99.90;;;;;;5048647;28;20644;-89
2023/08/02 01:45:02;;;;;;;0.00;0.00;;;15.80;99.90;;;;;;5031723;28;20041;-89
2023/08/02 01:47:27;;;;;;;0.50;0.30;;;13.50;99.90;;;;;;5048330;28;20122;-89
2023/08/02 01:49:53;;;;;;;0.38;0.22;;;14.40;99.90;;;;;;5050216;28;20492;-89
2023/08/02 01:52:19;;;;;;;0.00;0.00;;;15.60;99.90;;;;;;5031451;28;20045;-89
2023/08/02 01:54:44;;;;;;;0.30;0.20;;;14.40;99.90;;;;;;5048013;28;20861;-89
2023/08/02 01:57:10;;;;;;;0.10;0.10;;;14.40;99.90;;;;;;5048449;28;20132;-89
2023/08/02 01:59:36;;;;;;;0.10;0.10;;;14.50;99.90;;;;;;5048295;28;20036;-89
2023/08/02 02:02:02;;;;;;;1.77;0.60;;;14.40;99.90;;;;;;5049343;28;20052;-90
2023/08/02 02:04:27;;;;;;;0.20;0.20;;;14.40;99.90;;;;;;5047661;28;20049;-90
2023/08/02 02:06:53;;;;;;;0.10;0.08;;;15.70;99.90;;;;;;5047515;28;20048;-90
2023/08/02 02:09:19;;;;;;;0.10;0.10;;;15.30;99.90;;;;;;5031126;28;20061;-89
2023/08/02 02:11:44;;;;;;;1.70;0.38;;;14.40;99.90;;;;;;5031116;28;20443;-89
2023/08/02 02:14:10;;;;;;;0.20;0.10;;;14.40;99.90;;;;;;5031158;28;20053;-89
2023/08/02 02:16:36;;;;;;;0.73;0.35;;;14.40;99.90;;;;;;5047618;28;20491;-90
2023/08/02 02:19:02;;;;;;;0.05;0.05;;;14.50;99.90;;;;;;5031484;28;20041;-90
2023/08/02 02:21:27;;;;;;;0.15;0.15;;;14.50;99.90;;;;;;5047846;28;20049;-90
2023/08/02 02:23:53;;;;;;;2.45;1.45;;;14.50;99.90;;;;;;5030994;28;20059;-89
2023/08/02 02:26:19;;;;;;;1.75;0.47;;;15.40;99.90;;;;;;5047452;28;20071;-90
2023/08/02 02:28:44;;;;;;;0.20;0.15;;;14.40;99.90;;;;;;5047121;28;20044;-89
2023/08/02 02:31:10;;;;;;;0.00;0.00;;;15.40;99.90;;;;;;5048379;28;20041;-90
2023/08/02 02:33:38;;;;;;;0.43;0.43;;;14.60;99.90;;;;;;5046978;28;20464;-90
2023/08/02 02:36:06;;;;;;;0.13;0.13;;;14.50;99.90;;;;;;5048743;28;20053;-89
2023/08/02 02:38:31;;;;;;;0.00;0.00;;;15.20;99.90;;;;;;5048590;28;20081;-89
2023/08/02 02:40:57;;;;;;;0.00;0.00;;;14.40;99.90;;;;;;5046752;28;20077;-89
2023/08/02 02:43:23;;;;;;;1.00;1.00;;;15.30;99.90;;;;;;5047325;28;20040;-89
2023/08/02 02:45:48;;;;;;;0.00;0.00;;;14.40;99.90;;;;;;5047097;28;20045;-89
2023/08/02 02:48:14;;;;;;;0.32;0.32;;;15.80;99.90;;;;;;5047194;28;20040;-89
2023/08/02 02:50:40;;;;;;;0.10;0.10;;;14.40;99.90;;;;;;5047279;28;20045;-89
2023/08/02 02:53:05;;;;;;;0.08;0.08;;;15.70;99.90;;;;;;5046825;28;20487;-89
2023/08/02 02:55:31;;;;;;;0.65;0.65;;;14.30;99.90;;;;;;5047294;28;20384;-90
2023/08/02 02:57:57;;;;;;;5.28;0.30;;;14.40;99.90;;;;;;5030102;28;20070;-90
2023/08/02 03:00:22;;;;;;;0.17;0.17;;;14.30;99.90;;;;;;5046852;28;20817;-90
2023/08/02 03:02:48;;;;;;;0.30;0.30;;;14.30;99.90;;;;;;5048449;28;20049;-90
2023/08/02 03:05:14;;;;;;;1.17;0.28;;;14.30;99.90;;;;;;5048519;28;20498;-90
2023/08/02 03:07:40;;;;;;;3.70;0.47;;;14.30;99.90;;;;;;5046533;28;20153;-90
2023/08/02 03:10:06;;;;;;;1.17;0.32;;;14.30;99.90;;;;;;5046713;28;20072;-90
2023/08/02 03:12:31;;;;;;;4.22;0.98;;;14.30;99.90;;;;;;5046243;28;20095;-89
2023/08/02 03:14:57;;;;;;;0.20;0.05;;;14.30;99.90;;;;;;5046718;28;20049;-90
2023/08/02 03:17:23;;;;;;;0.38;0.32;;;15.70;99.90;;;;;;5046365;28;20105;-90
2023/08/02 03:19:48;;;;;;;0.25;0.15;;;14.40;99.90;;;;;;5029917;28;20049;-89
2023/08/02 03:22:14;;;;;;;4.18;1.02;;;14.40;99.90;;;;;;5046494;28;20055;-90
2023/08/02 03:24:40;;;;;;;2.95;0.65;;;14.30;99.90;;;;;;5046540;28;20048;-89
2023/08/02 03:27:06;;;;;;;1.00;0.40;;;14.40;99.90;;;;;;5046307;28;20067;-90
2023/08/02 03:29:31;;;;;;;0.93;0.65;;;14.40;99.90;;;;;;5048243;28;20928;-90
2023/08/02 03:31:57;;;;;;;2.75;0.90;;;15.80;99.90;;;;;;5046492;28;20129;-90
2023/08/02 03:34:23;;;;;;;1.27;0.45;;;14.40;99.90;;;;;;5046469;28;20560;-90
2023/08/02 03:36:48;;;;;;;0.70;0.60;;;14.40;99.90;;;;;;5046407;28;20065;-90
2023/08/02 03:39:14;;;;;;;0.73;0.73;;;14.40;99.90;;;;;;5046410;28;20041;-90
2023/08/02 03:41:40;;;;;;;0.00;0.00;;;14.40;99.90;;;;;;5045981;28;20056;-90
2023/08/02 03:44:05;;;;;;;0.57;0.45;;;14.40;99.90;;;;;;5045502;28;20091;-90
2023/08/02 03:46:31;;;;;;;0.20;0.20;;;14.40;99.90;;;;;;5047993;28;20090;-90
2023/08/02 03:48:56;;;;;;;0.32;0.32;;;14.40;99.90;;;;;;5046590;28;20056;-90
2023/08/02 03:51:22;;;;;;;15.40;0.63;;;15.10;99.90;;;;;;5029539;28;20088;-90
2023/08/02 03:53:48;;;;;;;0.75;0.75;;;14.40;99.90;;;;;;5047621;28;20475;-90
2023/08/02 03:56:14;;;;;;;0.35;0.30;;;14.50;99.90;;;;;;5046184;28;20407;-90
2023/08/02 03:58:39;;;;;;;0.40;0.40;;;15.90;99.90;;;;;;5045945;28;20044;-89
2023/08/02 04:01:05;;;;;;;0.50;0.30;;;14.50;99.90;;;;;;5045946;28;20049;-90
2023/08/02 04:03:31;;;;;;;0.55;0.55;;;15.90;99.90;;;;;;5029358;28;20474;-89
2023/08/02 04:05:56;;;;;;;1.35;0.85;;;14.50;99.90;;;;;;5046326;28;20048;-89
2023/08/02 04:08:22;;;;;;;1.60;0.70;;;14.50;99.90;;;;;;5029629;28;20053;-90
2023/08/02 04:10:47;;;;;;;0.57;0.57;;;14.50;99.90;;;;;;5047776;28;20048;-90
2023/08/02 04:13:13;;;;;;;1.92;1.15;;;15.90;99.90;;;;;;5047068;28;20037;-90
2023/08/02 04:15:39;;;;;;;2.55;1.88;;;15.00;99.90;;;;;;5047908;28;20041;-90
2023/08/02 04:18:04;;;;;;;7.30;2.25;;;14.50;99.90;;;;;;5046108;28;20064;-90
2023/08/02 04:20:30;;;;;;;1.85;1.25;;;13.30;99.90;;;;;;5046355;28;20417;-90
2023/08/02 04:22:56;;;;;;;0.32;0.32;;;15.70;99.90;;;;;;5047896;28;20071;-90
2023/08/02 04:25:21;;;;;;;0.75;0.63;;;14.40;99.90;;;;;;5048101;28;20033;-90
2023/08/02 04:27:47;;;;;;;10.68;2.20;;;14.40;99.90;;;;;;5029240;28;20060;-90
2023/08/02 04:30:13;;;;;;;0.75;0.75;;;15.20;99.90;;;;;;5046300;28;20064;-90
2023/08/02 04:32:39;;;;;;;2.30;0.70;;;14.40;99.90;;;;;;5029220;28;20214;-90
2023/08/02 04:35:05;;;;;;;0.40;0.35;;;14.40;99.90;;;;;;5029793;28;20152;-90
2023/08/02 04:37:30;;;;;;;7.50;2.15;;;14.40;99.90;;;;;;5029392;28;20051;-90
2023/08/02 04:39:56;;;;;;;1.10;1.05;;;14.60;99.90;;;;;;5046226;28;20052;-90
2023/08/02 04:42:25;;;;;;;1.75;1.08;;;14.40;99.90;;;;;;5046379;28;20057;-90
2023/08/02 04:44:50;;;;;;;1.13;0.57;;;14.30;99.90;;;;;;5046569;28;20476;-90
2023/08/02 04:47:16;;;;;;;0.15;0.15;;;14.70;99.90;;;;;;5046345;28;20080;-90
2023/08/02 04:49:42;;;;;;;0.80;0.80;;;14.30;99.90;;;;;;5046365;28;20068;-90
2023/08/02 04:52:07;;;;;;;0.40;0.38;;;14.30;99.90;;;;;;5046049;28;20085;-89
2023/08/02 04:54:34;;;;;;;0.77;0.38;;;14.30;99.90;;;;;;5048372;28;20067;-90
2023/08/02 04:56:59;;;;;;;0.45;0.38;;;14.70;99.90;;;;;;5050395;28;20047;-90
2023/08/02 04:59:25;;;;;;;0.00;0.00;;;14.30;99.90;;;;;;5049825;28;20049;-90
2023/08/02 05:01:51;;;;;;;1.13;1.02;;;14.30;99.90;;;;;;5049571;28;20132;-89
2023/08/02 05:04:17;;;;;;;5.25;0.57;;;14.30;99.90;;;;;;5050775;28;20044;-90
2023/08/02 05:06:42;;;;;;;1.23;0.73;;;14.30;99.90;;;;;;5050722;28;20048;-91
2023/08/02 05:09:08;;;;;;;0.70;0.68;;;14.30;99.90;;;;;;5049722;28;20056;-91
2023/08/02 05:11:36;;;;;;;3.70;1.75;;;14.90;99.90;;;;;;5050866;28;20124;-88
2023/08/02 05:14:02;;;;;;;0.30;0.30;;;15.20;99.90;;;;;;5049571;28;20052;-88
2023/08/02 05:16:27;;;;;;;0.65;0.47;;;14.40;99.90;;;;;;5049474;28;20079;-89
2023/08/02 05:18:53;;;;;;;0.35;0.35;;;14.40;99.90;;;;;;5050988;28;20049;-89
2023/08/02 05:21:19;;;;;;;2.35;0.38;;;15.80;99.90;;;;;;5049445;28;20056;-89
2023/08/02 05:23:45;;;;;;;2.05;1.63;;;14.90;99.90;;;;;;5050854;28;20076;-88
2023/08/02 05:26:12;;;;;;;0.43;0.40;;;14.40;99.90;;;;;;5033312;28;20424;-89
2023/08/02 05:28:39;;;;;;;0.40;0.40;;;14.50;99.90;;;;;;5049611;28;20057;-89
2023/08/02 05:31:10;;;;;;;0.28;0.28;;;14.60;99.90;;;;;;5049002;28;20053;-89
2023/08/02 05:33:36;;;;;;;2.55;0.57;;;14.70;99.90;;;;;;5048982;28;20079;-89
2023/08/02 05:36:02;;;;;;;2.83;2.10;;;14.70;99.90;;;;;;5032500;28;20057;-89
2023/08/02 05:38:27;;;;;;;0.85;0.73;;;14.80;99.90;;;;;;5050614;28;20590;-89
2023/08/02 05:40:53;;;;;;;3.35;1.33;;;15.90;99.90;;;;;;5050752;28;20048;-89
2023/08/02 05:43:19;;;;;;;0.75;0.65;;;15.00;99.90;;;;;;5050901;28;20041;-89
2023/08/02 05:45:50;;;;;;;0.80;0.55;;;15.00;99.90;;;;;;5050429;28;20064;-89
2023/08/02 05:48:16;;;;;;;0.13;0.10;;;15.90;99.90;;;;;;5048850;28;20048;-89
2023/08/02 05:50:41;;;;;;;0.55;0.55;;;15.40;99.90;;;;;;5048903;28;20045;-89
2023/08/02 05:53:07;;;;;;;0.95;0.55;;;15.80;99.90;;;;;;5050458;28;20052;-89
2023/08/02 05:55:33;;;;;;;1.45;1.08;;;15.20;99.90;;;;;;5048461;28;20048;-89
2023/08/02 05:57:58;;;;;;;1.10;1.00;;;15.30;99.90;;;;;;5049768;28;20149;-89
2023/08/02 06:00:24;;;;;;;3.03;1.38;;;15.40;99.90;;;;;;5048346;28;20052;-89
2023/08/02 06:02:50;;;;;;;1.08;0.63;;;15.50;99.90;;;;;;5048485;28;20049;-89
2023/08/02 06:05:16;;;;;;;6.50;1.73;;;14.60;99.90;;;;;;5046869;28;20055;-89
2023/08/02 06:07:41;;;;;;;1.27;0.57;;;15.80;99.90;;;;;;5046331;28;20052;-90
2023/08/02 06:10:07;;;;;;;3.85;2.22;;;16.70;99.90;;;;;;5032071;28;20068;-92
2023/08/02 06:12:33;;;;;;;1.08;1.02;;;16.20;1.00;;;;;;5031985;28;20554;-92
2023/08/02 06:14:58;;;;;;;1.13;0.80;;;16.10;99.90;;;;;;5032148;28;20116;-92
2023/08/02 06:17:32;;;;;;;0.57;0.35;;;17.10;1.00;;;;;;5050250;28;20077;-92
2023/08/02 06:20:01;;;;;;;3.15;1.45;;;16.30;99.90;;;;;;5034710;28;20040;-92
2023/08/02 06:22:30;;;;;;;0.47;0.40;;;16.40;99.90;;;;;;5052477;28;20053;-92
2023/08/02 06:25:13;;;;;;;1.23;0.57;;;16.80;99.90;;;;;;5050999;28;20056;-92
2023/08/02 06:27:41;;;;;;;0.80;0.60;;;16.50;99.90;;;;;;5034025;28;20045;-91
2023/08/02 06:30:08;;;;;;;2.00;1.15;;;16.50;22.20;;;;;;5033411;28;20049;-91
2023/08/02 06:32:33;;;;;;;1.55;0.93;;;16.50;1.00;;;;;;5034685;28;20084;-92
2023/08/02 06:35:02;;;;;;;0.32;0.30;;;16.60;22.20;;;;;;5050977;28;20094;-91
2023/08/02 06:37:27;;;;;;;2.33;0.85;;;16.70;99.90;;;;;;5051615;28;20059;-90
2023/08/02 06:39:53;;;;;;;0.15;0.10;;;16.90;99.90;;;;;;5034416;28;20040;-90
2023/08/02 06:42:19;;;;;;;1.05;0.95;;;17.10;99.90;;;;;;5033567;28;20055;-91
2023/08/02 06:44:44;;;;;;;0.22;0.20;;;17.20;99.90;;;;;;5050991;28;20071;-90
2023/08/02 06:47:10;;;;;;;0.73;0.40;;;16.30;99.90;;;;;;5032216;28;20049;-91
2023/08/02 06:49:36;;;;;;;0.38;0.17;;;17.20;1.00;;;;;;5047210;28;20048;-91
2023/08/02 06:52:02;;;;;;;0.10;0.10;;;17.00;99.90;;;;;;5030496;28;20071;-90
2023/08/02 06:54:28;;;;;;;0.65;0.65;;;17.00;99.90;;;;;;5045496;28;20372;-90
2023/08/02 06:56:54;;;;;;;1.95;0.68;;;17.20;1.00;;;;;;5029357;28;20041;-90
2023/08/02 06:59:19;;;;;;;0.38;0.30;;;17.20;99.90;;;;;;5046135;28;20070;-91
2023/08/02 07:01:46;;;;;;;3.85;2.45;;;17.30;99.90;;;;;;5047433;28;20076;-91
2023/08/02 07:04:11;;;;;;;1.60;0.77;;;17.30;99.90;;;;;;5029554;28;20045;-90
2023/08/02 07:06:40;;;;;;;0.85;0.75;;;17.10;1.00;;;;;;5047509;28;20518;-90
2023/08/02 07:09:16;;;;;;;0.13;0.13;;;18.00;1.00;;;;;;5030605;28;20135;-91
2023/08/02 07:11:42;;;;;;;0.10;0.10;;;17.30;99.90;;;;;;5047258;28;20045;-92
2023/08/02 07:14:15;;;;;;;2.78;1.70;;;17.20;99.90;;;;;;5030341;28;20056;-92
2023/08/02 07:16:51;;;;;;;0.57;0.45;;;15.80;99.90;;;;;;5030178;28;20052;-92
2023/08/02 07:19:17;;;;;;;;;;;16.50;1.00;;;;;;5049195;28;20135;-91
2023/08/02 07:21:51;;;;;;;1.27;0.75;;;17.00;1.00;;;;;;5049364;28;19972;-92
2023/08/02 07:24:20;;;;;;;4.03;0.98;;;16.90;99.90;;;;;;5031264;28;20091;-91
2023/08/02 07:26:45;;;;;;;1.55;1.02;;;16.80;1.00;;;;;;5051117;28;20055;-91
2023/08/02 07:29:13;;;;;;;0.20;0.20;;;16.70;99.90;;;;;;5033657;28;20044;-91
2023/08/02 07:31:39;;;;;;;0.28;0.25;;;16.40;99.90;;;;;;5033485;28;20136;-91
2023/08/02 07:34:05;;;;;;;0.32;0.22;;;16.50;1.00;;;;;;5032008;28;20140;-92
2023/08/02 07:36:31;;;;;;;1.65;0.65;;;16.40;99.90;;;;;;5032516;28;20144;-92
2023/08/02 07:39:00;;;;;;;0.10;0.10;;;16.50;99.90;;;;;;5032936;28;20045;-91
2023/08/02 07:41:27;;;;;;;1.20;0.95;;;16.40;99.90;;;;;;5049818;28;20940;-91
2023/08/02 07:44:01;;;;;;;3.03;1.10;;;16.20;99.90;;;;;;5034361;28;20133;-91
2023/08/02 07:46:27;;;;;;;0.10;0.10;;;16.50;1.00;;;;;;5032952;28;20053;-92
2023/08/02 07:48:56;;;;;;;1.58;1.02;;;16.40;99.90;;;;;;5033207;28;20041;-92
2023/08/02 07:51:27;;;;;;;0.63;0.52;;;15.70;1.00;;;;;;5033842;28;20446;-90
2023/08/02 07:53:53;;;;;;;7.03;1.48;;;16.30;99.90;;;;;;5031730;28;20041;-90
2023/08/02 07:56:20;;;;;;;0.88;0.85;;;16.40;1.00;;;;;;5029440;28;20052;-91
2023/08/02 07:58:46;;;;;;;1.05;0.75;;;16.20;99.90;;;;;;5034855;28;20049;-91
2023/08/02 08:01:12;;;;;;;0.25;0.25;;;16.40;99.90;;;;;;5035958;28;20044;-92
2023/08/02 08:03:40;;;;;;;0.00;0.00;;;16.40;99.90;;;;;;5051648;28;20053;-92
2023/08/02 08:06:19;;;;;;;6.65;1.27;;;16.40;99.90;;;;;;5034443;28;20064;-92
2023/08/02 08:08:45;;;;;;;0.25;0.22;;;16.20;1.00;;;;;;5030792;28;20052;-89
2023/08/02 08:11:11;;;;;;;0.63;0.47;;;16.00;99.90;;;;;;5048648;28;20500;-89
2023/08/02 08:13:37;;;;;;;0.95;0.90;;;15.90;99.90;;;;;;5046713;28;20187;-90
2023/08/02 08:16:03;;;;;;;0.00;0.00;;;15.70;99.90;;;;;;5047550;28;20539;-90
2023/08/02 08:18:31;;;;;;;0.10;0.10;;;15.50;1.00;;;;;;5030284;28;20132;-90
2023/08/02 08:20:57;;;;;;;0.00;0.00;;;15.30;23.00;;;;;;5049172;28;20202;-90
2023/08/02 08:23:23;;;;;;;0.82;0.38;;;15.20;93.70;;;;;;5048338;28;20545;-91
2023/08/02 08:25:49;;;;;;;0.32;0.28;;;15.20;99.90;;;;;;5033296;28;20045;-91
2023/08/02 08:28:14;;;;;;;0.10;0.10;;;15.10;99.90;;;;;;5051463;28;20036;-91
2023/08/02 08:30:40;;;;;;;0.00;0.00;;;14.10;99.90;;;;;;5036100;28;20045;-91
2023/08/02 08:33:06;;;;;;;0.20;0.20;;;15.00;99.90;;;;;;5055639;28;20061;-91
2023/08/02 08:35:35;;;;;;;0.22;0.22;;;15.00;99.90;;;;;;5056741;28;20128;-90
2023/08/02 08:38:04;;;;;;;1.45;0.38;;;15.00;99.90;;;;;;5073349;28;20029;-91
2023/08/02 08:40:32;;;;;;;7.38;1.85;;;14.90;99.90;;;;;;5075702;28;20056;-90
2023/08/02 08:42:58;;;;;;;0.35;0.35;;;14.90;99.90;;;;;;5075656;28;20072;-89
2023/08/02 08:45:25;;;;;;;0.00;0.00;;;14.80;99.90;;;;;;5074792;28;20020;-91
2023/08/02 08:47:52;;;;;;;0.47;0.40;;;14.70;99.90;;;;;;5058949;28;20063;-91
2023/08/02 08:50:20;;;;;;;1.77;1.20;;;14.60;99.90;;;;;;5059603;28;20043;-92
2023/08/02 08:52:47;;;;;;;0.32;0.25;;;14.70;99.90;;;;;;5073504;28;20056;-91
2023/08/02 08:55:16;;;;;;;0.47;0.47;;;14.70;99.90;;;;;;5067399;28;20100;-90
2023/08/02 08:57:45;;;;;;;0.22;0.22;;;14.70;99.90;;;;;;5054181;28;20037;-90
2023/08/02 09:00:13;;;;;;;0.00;0.00;;;14.70;99.90;;;;;;5052624;28;20403;-91
2023/08/02 09:02:41;;;;;;;0.10;0.10;;;14.60;99.90;;;;;;5055156;28;20077;-92
2023/08/02 09:05:08;;;;;;;0.35;0.30;;;14.60;99.90;;;;;;5036494;28;20080;-91
2023/08/02 09:07:34;;;;;;;0.73;0.20;;;14.70;99.90;;;;;;5036556;28;20139;-91
2023/08/02 09:10:00;;;;;;;0.13;0.13;;;14.60;99.90;;;;;;5054634;28;20064;-91
2023/08/02 09:12:28;;;;;;;0.43;0.22;;;14.70;99.90;;;;;;5053506;28;20048;-92
2023/08/02 09:15:04;;;;;;;0.55;0.10;;;14.80;99.90;;;;;;5054542;28;20166;-91
2023/08/02 09:17:50;;;;;;;0.00;0.00;;;14.80;99.90;;;;;;5036447;28;20394;-92
2023/08/02 09:20:18;;;;;;;2.20;1.07;;;14.80;99.90;;;;;;5053392;28;20045;-92
2023/08/02 09:22:44;;;;;;;0.08;0.08;;;15.00;99.90;;;;;;5053624;28;20055;-91
2023/08/02 09:25:28;;;;;;;0.00;0.00;;;15.00;99.90;;;;;;5054338;28;20045;-93
2023/08/02 09:28:00;;;;;;;0.73;0.73;;;15.10;99.90;;;;;;5036377;28;20055;-91
2023/08/02 09:30:32;;;;;;;0.13;0.13;;;15.20;99.90;;;;;;5035685;28;20053;-91
2023/08/02 09:33:02;;;;;;;5.85;1.25;;;15.20;99.90;;;;;;5052652;28;20049;-91
2023/08/02 09:35:32;;;;;;;0.55;0.55;;;15.10;99.90;;;;;;5052055;28;20075;-92
2023/08/02 09:37:58;;;;;;;1.20;0.68;;;15.20;99.90;;;;;;5050500;28;20060;-91
2023/08/02 09:40:38;;;;;;;1.45;0.20;;;15.30;99.90;;;;;;5033715;28;20048;-91
2023/08/02 09:43:05;;;;;;;0.45;0.35;;;15.40;99.90;;;;;;5051554;28;20056;-92
2023/08/02 09:45:32;;;;;;;0.73;0.43;;;15.40;99.90;;;;;;5050514;28;20049;-92
2023/08/02 09:47:58;;;;;;;0.63;0.63;;;15.50;99.90;;;;;;5052067;28;20048;-92
2023/08/02 09:50:24;;;;;;;0.73;0.52;;;15.40;99.90;;;;;;5050302;28;20072;-91
2023/08/02 09:52:49;;;;;;;0.10;0.10;;;15.50;99.90;;;;;;5051434;28;20060;-91
2023/08/02 09:55:15;;;;;;;0.30;0.30;;;15.50;99.90;;;;;;5035080;28;20575;-91
2023/08/02 09:57:46;;;;;;;0.47;0.47;;;15.60;99.90;;;;;;5051136;28;20048;-92
2023/08/02 10:00:15;;;;;;;6.53;0.57;;;15.60;99.90;;;;;;5051288;28;20045;-91
2023/08/02 10:02:49;;;;;;;0.70;0.70;;;15.60;99.90;;;;;;5052480;28;20079;-92
2023/08/02 10:05:26;;;;;;;;;;;;;;;;;;;;;
2023/08/02 10:11:11;;;;;;;0.25;0.25;;;15.50;99.90;;;;;;5041285;28;20491;-92
2023/08/02 10:14:02;;;;;;;0.82;0.75;;;15.70;99.90;;;;;;5035930;28;20049;-92
2023/08/02 10:16:32;;;;;;;1.75;1.20;;;15.10;99.90;;;;;;5033897;28;20049;-91
2023/08/02 10:19:01;;;;;;;0.98;0.45;;;15.60;99.90;;;;;;5049301;28;20049;-90
2023/08/02 10:21:37;;;;;;;;;;;;;;;;;;;;;
2023/08/02 10:24:04;;;;;;;1.67;1.58;;;15.60;99.90;;;;;;5048799;28;20044;-91
2023/08/02 10:26:31;;;;;;;0.90;0.60;;;15.70;99.90;;;;;;5048316;28;20547;-91
2023/08/02 10:28:58;;;;;;;0.20;0.10;;;15.90;99.90;;;;;;5049614;28;20041;-91
2023/08/02 10:31:25;;;;;;;2.38;0.65;;;15.70;99.90;;;;;;5034725;28;20045;-91
2023/08/02 10:33:56;;;;;;;0.10;0.10;;;15.80;99.90;;;;;;5033945;28;20530;-91
2023/08/02 10:36:27;;;;;;;0.00;0.00;;;15.90;99.90;;;;;;5051343;28;20092;-91
2023/08/02 10:38:55;;;;;;;0.25;0.25;;;16.50;99.90;;;;;;5034908;28;20071;-91
2023/08/02 10:41:35;;;;;;;0.05;0.05;;;16.10;99.90;;;;;;5034032;28;20924;-92
2023/08/02 10:44:14;;;;;;;0.75;0.75;;;16.00;99.90;;;;;;5033472;28;20053;-92
2023/08/02 10:46:40;;;;;;;0.22;0.22;;;16.00;99.90;;;;;;5035036;28;20210;-92
2023/08/02 10:49:17;;;;;;;1.85;1.40;;;16.00;99.90;;;;;;5050872;28;20108;-93
2023/08/02 10:52:01;;;;;;;1.30;0.10;;;16.00;99.90;;;;;;5051413;28;20044;-92
2023/08/02 10:55:13;;;;;;;1.35;0.30;;;16.40;99.90;;;;;;5036591;28;20060;-92
2023/08/02 10:58:10;;;;;;;0.20;0.20;;;15.90;99.90;;;;;;5049931;28;20045;-92
2023/08/02 11:00:39;;;;;;;2.55;1.00;;;14.90;99.90;;;;;;5032625;28;20459;-92
2023/08/02 11:03:08;;;;;;;0.82;0.57;;;16.10;99.90;;;;;;5032605;28;20128;-92
2023/08/02 11:05:49;;;;;;;0.45;0.28;;;16.00;99.90;;;;;;5033188;28;20041;-92
2023/08/02 11:08:24;;;;;;;0.68;0.20;;;16.00;99.90;;;;;;5033712;28;20115;-92
2023/08/02 11:10:55;;;;;;;0.00;0.00;;;16.20;99.90;;;;;;5053399;28;20037;-95
2023/08/02 11:13:41;;;;;;;0.00;0.00;;;15.90;99.90;;;;;;5035151;28;20386;-95
2023/08/02 11:16:12;;;;;;;0.40;0.25;;;15.50;99.90;;;;;;5051536;28;20127;-94
2023/08/02 11:18:42;;;;;;;0.00;0.00;;;16.20;99.90;;;;;;5036145;28;20503;-95
2023/08/02 11:21:13;;;;;;;0.00;0.00;;;16.20;99.90;;;;;;5037417;28;20092;-90
2023/08/02 11:23:40;;;;;;;0.10;0.10;;;16.30;99.90;;;;;;5051513;28;20056;-90
2023/08/02 11:26:13;;;;;;;0.00;0.00;;;16.30;99.90;;;;;;5040993;28;20199;-94
2023/08/02 11:28:55;;;;;;;0.00;0.00;;;16.30;99.90;;;;;;5058144;28;20043;-93
2023/08/02 11:31:28;;;;;;;0.00;0.00;;;16.40;99.90;;;;;;5039314;28;20045;-92
2023/08/02 11:34:02;;;;;;;0.00;0.00;;;16.50;99.90;;;;;;5036984;28;20414;-92
2023/08/02 11:36:35;;;;;;;0.00;0.00;;;16.50;99.90;;;;;;5037519;28;20601;-92
2023/08/02 11:39:16;;;;;;;0.00;0.00;;;15.70;99.90;;;;;;5050576;28;20055;-91
2023/08/02 11:42:03;;;;;;;0.45;0.28;;;16.50;99.90;;;;;;5050201;28;20088;-92
2023/08/02 11:44:36;;;;;;;0.10;0.10;;;17.90;99.90;;;;;;5034982;28;20147;-92
2023/08/02 11:47:43;;;;;;;0.00;0.00;;;17.00;99.90;;;;;;5052920;28;20052;-92
2023/08/02 11:50:26;;;;;;;0.00;0.00;;;18.00;99.90;;;;;;5052978;28;20060;-90
2023/08/02 11:53:08;;;;;;;0.00;0.00;;;17.20;99.90;;;;;;5049354;28;20056;-91
2023/08/02 11:55:40;;;;;;;0.00;0.00;;;17.50;99.90;;;;;;5051646;28;20102;-90
2023/08/02 11:58:07;;;;;;;0.10;0.10;;;17.70;99.90;;;;;;5052967;28;20045;-90
2023/08/02 12:00:37;;;;;;;0.22;0.10;;;17.90;99.90;;;;;;5062723;28;20053;-91
2023/08/02 12:03:28;;;;;;;0.00;0.00;;;17.10;99.90;;;;;;5032698;28;20041;-92
2023/08/02 12:06:03;;;;;;;0.22;0.20;;;18.00;99.90;;;;;;5052305;28;20122;-92
2023/08/02 12:08:36;;;;;;;0.10;0.10;;;18.50;99.90;;;;;;5038872;28;20049;-92
2023/08/02 12:11:22;;;;;;;;;;;;;;;;;;;;;
2023/08/02 12:13:55;;;;;;;0.00;0.00;;;19.00;99.90;;;;;;5064624;28;20037;-90
2023/08/02 12:16:35;;;;;;;;;;;;;;;;;;;;;
2023/08/02 12:19:01;;;;;;;0.00;0.00;;;19.10;99.90;;;;;;5068035;28;20101;-90
2023/08/02 12:21:27;;;;;;;0.00;0.00;;;17.90;1.00;;;;;;5070613;28;20045;-91
2023/08/02 12:23:55;;;;;;;0.10;0.10;;;18.40;1.00;;;;;;5070362;28;20049;-89
2023/08/02 12:26:39;;;;;;;0.10;0.10;;;19.20;1.00;;;;;;5072649;28;20047;-89
2023/08/02 12:29:30;;;;;;;;;;;;;;;;;;;;;
2023/08/02 12:32:05;;;;;;;1.65;0.55;;;19.50;99.90;;;;;;5073265;28;20037;-91
2023/08/02 12:34:31;;;;;;;0.50;0.40;;;18.60;99.90;;;;;;5057781;28;20118;-88
2023/08/02 12:36:59;;;;;;;0.10;0.10;;;18.40;39.70;;;;;;5059993;28;20025;-88
2023/08/02 12:39:46;;;;;;;0.00;0.00;;;18.20;99.90;;;;;;5077550;28;20084;-88
2023/08/02 12:42:34;;;;;;;0.00;0.00;;;18.20;99.90;;;;;;5073360;28;20044;-89
2023/08/02 12:45:07;;;;;;;0.10;0.10;;;18.30;99.90;;;;;;5041647;28;20067;-88
2023/08/02 12:47:33;;;;;;;0.05;0.05;;;18.60;99.90;;;;;;5041890;28;20052;-88
2023/08/02 12:50:02;;;;;;;0.03;0.03;;;19.60;99.90;;;;;;5054381;28;20399;-88
2023/08/02 12:52:30;;;;;;;0.30;0.25;;;20.80;8.30;;;;;;5055246;28;20064;-88
2023/08/02 12:54:56;;;;;;;0.00;0.00;;;21.70;1.00;;;;;;5074653;28;20064;-88
2023/08/02 12:57:22;;;;;;;0.03;0.03;;;22.30;99.90;;;;;;5071895;28;20064;-87
2023/08/02 12:59:48;;;;;;;0.10;0.10;;;23.00;99.90;;;;;;5049715;28;20053;-87
2023/08/02 13:02:13;;;;;;;0.00;0.00;;;23.30;1.00;;;;;;5071810;28;20060;-89
2023/08/02 13:04:44;;;;;;;0.00;0.00;;;23.70;76.00;;;;;;5057091;28;20053;-89